sensor_id;sensor_type;location;lat;lon;timestamp;pressure;altitude;pressure_sealevel;temperature;humidity
30516;BME280;17297;54.022;10.760;2023-08-24T00:01:06;101780.16;;;21.87;64.48
30516;BME280;17297;54.022;10.760;2023-08-24T00:03:32;101782.31;;;21.85;64.62
30516;BME280;17297;54.022;10.760;2023-08-24T00:05:58;101776.22;;;21.83;64.31
30516;BME280;17297;54.022;10.760;2023-08-24T00:08:23;101776.50;;;21.82;64.53
30516;BME280;17297;54.022;10.760;2023-08-24T00:10:49;101764.94;;;21.80;64.36
30516;BME280;17297;54.022;10.760;2023-08-24T00:13:14;101767.94;;;21.78;64.66
30516;BME280;17297;54.022;10.760;2023-08-24T00:15:41;101759.94;;;21.77;64.46
30516;BME280;17297;54.022;10.760;2023-08-24T00:18:06;101762.94;;;21.75;64.40
30516;BME280;17297;54.022;10.760;2023-08-24T00:20:33;101755.22;;;21.72;64.72
30516;BME280;17297;54.022;10.760;2023-08-24T00:22:59;101754.38;;;21.72;64.48
30516;BME280;17297;54.022;10.760;2023-08-24T00:25:24;101754.00;;;21.68;64.51
30516;BME280;17297;54.022;10.760;2023-08-24T00:27:54;101766.06;;;21.67;64.70
30516;BME280;17297;54.022;10.760;2023-08-24T00:30:20;101758.31;;;21.64;64.73
30516;BME280;17297;54.022;10.760;2023-08-24T00:32:46;101764.88;;;21.63;64.61
30516;BME280;17297;54.022;10.760;2023-08-24T00:35:11;101759.06;;;21.59;64.59
30516;BME280;17297;54.022;10.760;2023-08-24T00:37:37;101760.13;;;21.58;64.43
30516;BME280;17297;54.022;10.760;2023-08-24T00:40:05;101759.53;;;21.56;64.65
30516;BME280;17297;54.022;10.760;2023-08-24T00:42:39;101756.22;;;21.54;64.47
30516;BME280;17297;54.022;10.760;2023-08-24T00:45:07;101751.22;;;21.51;64.45
30516;BME280;17297;54.022;10.760;2023-08-24T00:47:32;101753.34;;;21.49;64.40
30516;BME280;17297;54.022;10.760;2023-08-24T00:49:59;101758.00;;;21.49;64.72
30516;BME280;17297;54.022;10.760;2023-08-24T00:52:28;101760.16;;;21.47;64.91
30516;BME280;17297;54.022;10.760;2023-08-24T00:54:56;101754.09;;;21.44;64.69
30516;BME280;17297;54.022;10.760;2023-08-24T00:57:21;101764.22;;;21.44;64.42
30516;BME280;17297;54.022;10.760;2023-08-24T00:59:47;101763.59;;;21.42;64.58
30516;BME280;17297;54.022;10.760;2023-08-24T01:02:13;101763.88;;;21.40;64.92
30516;BME280;17297;54.022;10.760;2023-08-24T01:04:41;101778.38;;;21.41;64.89
30516;BME280;17297;54.022;10.760;2023-08-24T01:07:07;101768.75;;;21.38;64.70
30516;BME280;17297;54.022;10.760;2023-08-24T01:09:34;101767.31;;;21.36;64.80
30516;BME280;17297;54.022;10.760;2023-08-24T01:12:06;101769.41;;;21.34;64.78
30516;BME280;17297;54.022;10.760;2023-08-24T01:14:49;101775.97;;;21.33;64.97
30516;BME280;17297;54.022;10.760;2023-08-24T01:17:20;101781.69;;;21.31;64.63
30516;BME280;17297;54.022;10.760;2023-08-24T01:19:47;101771.78;;;21.30;64.90
30516;BME280;17297;54.022;10.760;2023-08-24T01:22:41;101777.53;;;21.29;64.93
30516;BME280;17297;54.022;10.760;2023-08-24T01:27:35;101776.34;;;21.25;65.05
30516;BME280;17297;54.022;10.760;2023-08-24T01:30:03;101770.50;;;21.21;65.07
30516;BME280;17297;54.022;10.760;2023-08-24T01:32:32;101773.50;;;21.19;64.75
30516;BME280;17297;54.022;10.760;2023-08-24T01:34:59;101770.16;;;21.17;64.95
30516;BME280;17297;54.022;10.760;2023-08-24T01:37:25;101770.41;;;21.16;65.07
30516;BME280;17297;54.022;10.760;2023-08-24T01:40:10;101772.53;;;21.14;65.11
30516;BME280;17297;54.022;10.760;2023-08-24T01:43:03;101781.00;;;21.12;64.79
30516;BME280;17297;54.022;10.760;2023-08-24T01:45:32;101787.78;;;21.10;65.03
30516;BME280;17297;54.022;10.760;2023-08-24T01:48:03;101786.34;;;21.07;65.00
30516;BME280;17297;54.022;10.760;2023-08-24T01:50:29;101790.72;;;21.08;64.98
30516;BME280;17297;54.022;10.760;2023-08-24T01:52:55;101784.91;;;21.05;65.04
30516;BME280;17297;54.022;10.760;2023-08-24T01:55:21;101795.03;;;21.04;64.85
30516;BME280;17297;54.022;10.760;2023-08-24T01:57:48;101786.22;;;21.02;65.18
30516;BME280;17297;54.022;10.760;2023-08-24T02:00:14;101788.38;;;21.00;65.17
30516;BME280;17297;54.022;10.760;2023-08-24T02:02:39;101786.69;;;20.99;65.23
30516;BME280;17297;54.022;10.760;2023-08-24T02:05:05;101782.28;;;20.98;65.39
30516;BME280;17297;54.022;10.760;2023-08-24T02:07:31;101782.50;;;20.96;65.00
30516;BME280;17297;54.022;10.760;2023-08-24T02:09:56;101781.69;;;20.96;65.08
30516;BME280;17297;54.022;10.760;2023-08-24T02:12:21;101783.03;;;20.93;65.32
30516;BME280;17297;54.022;10.760;2023-08-24T02:14:47;101785.97;;;20.92;65.40
30516;BME280;17297;54.022;10.760;2023-08-24T02:17:14;101775.50;;;20.89;65.15
30516;BME280;17297;54.022;10.760;2023-08-24T02:19:40;101782.88;;;20.88;65.40
30516;BME280;17297;54.022;10.760;2023-08-24T02:22:08;101771.34;;;20.86;65.29
30516;BME280;17297;54.022;10.760;2023-08-24T02:24:33;101771.34;;;20.86;65.02
30516;BME280;17297;54.022;10.760;2023-08-24T02:26:59;101763.38;;;20.85;65.34
30516;BME280;17297;54.022;10.760;2023-08-24T02:29:25;101762.78;;;20.83;65.38
30516;BME280;17297;54.022;10.760;2023-08-24T02:31:51;101752.09;;;20.81;65.18
30516;BME280;17297;54.022;10.760;2023-08-24T02:34:17;101758.88;;;20.79;65.19
30516;BME280;17297;54.022;10.760;2023-08-24T02:36:42;101764.34;;;20.79;65.31
30516;BME280;17297;54.022;10.760;2023-08-24T02:39:07;101759.34;;;20.75;65.21
30516;BME280;17297;54.022;10.760;2023-08-24T02:41:34;101760.38;;;20.74;65.05
30516;BME280;17297;54.022;10.760;2023-08-24T02:43:59;101756.81;;;20.74;65.51
30516;BME280;17297;54.022;10.760;2023-08-24T02:46:24;101766.09;;;20.73;65.42
30516;BME280;17297;54.022;10.760;2023-08-24T02:48:50;101760.84;;;20.71;65.13
30516;BME280;17297;54.022;10.760;2023-08-24T02:51:17;101759.44;;;20.69;65.11
30516;BME280;17297;54.022;10.760;2023-08-24T02:53:43;101746.00;;;20.67;65.60
30516;BME280;17297;54.022;10.760;2023-08-24T02:56:08;101750.66;;;20.67;65.32
30516;BME280;17297;54.022;10.760;2023-08-24T02:58:34;101753.59;;;20.65;65.22
30516;BME280;17297;54.022;10.760;2023-08-24T03:01:04;101751.94;;;20.64;65.49
30516;BME280;17297;54.022;10.760;2023-08-24T03:03:31;101748.59;;;20.62;65.48
30516;BME280;17297;54.022;10.760;2023-08-24T03:05:59;101752.41;;;20.61;65.19
30516;BME280;17297;54.022;10.760;2023-08-24T03:08:26;101742.56;;;20.60;65.57
30516;BME280;17297;54.022;10.760;2023-08-24T03:10:52;101747.41;;;20.58;65.47
30516;BME280;17297;54.022;10.760;2023-08-24T03:15:44;101741.59;;;20.55;65.48
30516;BME280;17297;54.022;10.760;2023-08-24T03:18:15;101741.84;;;20.53;65.28
30516;BME280;17297;54.022;10.760;2023-08-24T03:20:41;101751.09;;;20.52;65.61
30516;BME280;17297;54.022;10.760;2023-08-24T03:23:07;101746.66;;;20.51;65.57
30516;BME280;17297;54.022;10.760;2023-08-24T03:25:36;101750.47;;;20.50;65.87
30516;BME280;17297;54.022;10.760;2023-08-24T03:28:02;101740.84;;;20.47;65.38
30516;BME280;17297;54.022;10.760;2023-08-24T03:30:28;101739.16;;;20.46;65.77
30516;BME280;17297;54.022;10.760;2023-08-24T03:32:53;101744.63;;;20.46;65.74
30516;BME280;17297;54.022;10.760;2023-08-24T03:35:19;101745.69;;;20.45;65.78
30516;BME280;17297;54.022;10.760;2023-08-24T03:37:44;101744.03;;;20.44;65.64
30516;BME280;17297;54.022;10.760;2023-08-24T03:40:11;101749.72;;;20.43;65.40
30516;BME280;17297;54.022;10.760;2023-08-24T03:42:36;101753.53;;;20.42;65.53
30516;BME280;17297;54.022;10.760;2023-08-24T03:45:02;101745.56;;;20.40;65.55
30516;BME280;17297;54.022;10.760;2023-08-24T03:47:28;101746.88;;;20.38;65.39
30516;BME280;17297;54.022;10.760;2023-08-24T03:49:53;101745.19;;;20.37;65.50
30516;BME280;17297;54.022;10.760;2023-08-24T03:52:20;101739.97;;;20.35;65.87
30516;BME280;17297;54.022;10.760;2023-08-24T03:54:46;101746.50;;;20.34;65.50
30516;BME280;17297;54.022;10.760;2023-08-24T03:57:11;101747.56;;;20.33;65.62
30516;BME280;17297;54.022;10.760;2023-08-24T03:59:36;101751.38;;;20.32;65.72
30516;BME280;17297;54.022;10.760;2023-08-24T04:02:02;101749.69;;;20.31;65.40
30516;BME280;17297;54.022;10.760;2023-08-24T04:04:29;101750.19;;;20.28;65.59
30516;BME280;17297;54.022;10.760;2023-08-24T04:06:55;101752.06;;;20.27;65.41
30516;BME280;17297;54.022;10.760;2023-08-24T04:09:21;101756.69;;;20.27;65.73
30516;BME280;17297;54.022;10.760;2023-08-24T04:11:46;101755.03;;;20.26;65.46
30516;BME280;17297;54.022;10.760;2023-08-24T04:14:14;101743.50;;;20.24;65.53
30516;BME280;17297;54.022;10.760;2023-08-24T04:16:40;101746.25;;;20.24;65.52
30516;BME280;17297;54.022;10.760;2023-08-24T04:19:07;101743.75;;;20.22;65.69
30516;BME280;17297;54.022;10.760;2023-08-24T04:21:32;101742.69;;;20.23;65.58
30516;BME280;17297;54.022;10.760;2023-08-24T04:23:58;101737.22;;;20.23;65.76
30516;BME280;17297;54.022;10.760;2023-08-24T04:26:24;101738.03;;;20.24;65.91
30516;BME280;17297;54.022;10.760;2023-08-24T04:28:52;101739.94;;;20.23;65.82
30516;BME280;17297;54.022;10.760;2023-08-24T04:31:17;101744.34;;;20.24;65.57
30516;BME280;17297;54.022;10.760;2023-08-24T04:33:43;101744.13;;;20.26;65.68
30516;BME280;17297;54.022;10.760;2023-08-24T04:36:08;101739.25;;;20.28;65.66
30516;BME280;17297;54.022;10.760;2023-08-24T04:38:34;101737.94;;;20.30;65.77
30516;BME280;17297;54.022;10.760;2023-08-24T04:40:59;101740.81;;;20.36;65.65
30516;BME280;17297;54.022;10.760;2023-08-24T04:43:25;101753.06;;;20.45;65.61
30516;BME280;17297;54.022;10.760;2023-08-24T04:45:53;101746.22;;;20.54;65.99
30516;BME280;17297;54.022;10.760;2023-08-24T04:48:19;101742.66;;;20.65;65.72
30516;BME280;17297;54.022;10.760;2023-08-24T04:50:45;101743.88;;;20.81;65.69
30516;BME280;17297;54.022;10.760;2023-08-24T04:53:15;101743.25;;;21.03;65.48
30516;BME280;17297;54.022;10.760;2023-08-24T04:55:41;101744.09;;;21.27;64.99
30516;BME280;17297;54.022;10.760;2023-08-24T04:58:07;101733.00;;;21.57;65.10
30516;BME280;17297;54.022;10.760;2023-08-24T05:00:33;101732.13;;;21.97;64.80
30516;BME280;17297;54.022;10.760;2023-08-24T05:03:03;101744.03;;;22.31;64.57
30516;BME280;17297;54.022;10.760;2023-08-24T05:05:30;101745.19;;;22.69;63.85
30516;BME280;17297;54.022;10.760;2023-08-24T05:07:56;101734.44;;;23.18;63.51
30516;BME280;17297;54.022;10.760;2023-08-24T05:10:22;101726.00;;;23.68;62.90
30516;BME280;17297;54.022;10.760;2023-08-24T05:12:47;101727.09;;;24.16;62.71
30516;BME280;17297;54.022;10.760;2023-08-24T05:15:13;101729.25;;;24.41;61.62
30516;BME280;17297;54.022;10.760;2023-08-24T05:17:39;101738.41;;;24.47;60.61
30516;BME280;17297;54.022;10.760;2023-08-24T05:20:05;101742.44;;;24.39;60.46
30516;BME280;17297;54.022;10.760;2023-08-24T05:22:31;101746.13;;;24.23;60.04
30516;BME280;17297;54.022;10.760;2023-08-24T05:24:56;101750.84;;;24.01;60.19
30516;BME280;17297;54.022;10.760;2023-08-24T05:27:21;101759.41;;;23.77;59.91
30516;BME280;17297;54.022;10.760;2023-08-24T05:29:46;101768.66;;;23.54;60.12
30516;BME280;17297;54.022;10.760;2023-08-24T05:32:12;101768.06;;;23.30;60.46
30516;BME280;17297;54.022;10.760;2023-08-24T05:34:37;101773.78;;;23.07;60.61
30516;BME280;17297;54.022;10.760;2023-08-24T05:37:02;101765.47;;;22.85;60.89
30516;BME280;17297;54.022;10.760;2023-08-24T05:39:28;101762.97;;;22.66;61.01
30516;BME280;17297;54.022;10.760;2023-08-24T05:41:53;101762.41;;;22.47;60.92
30516;BME280;17297;54.022;10.760;2023-08-24T05:44:19;101766.28;;;22.34;61.24
30516;BME280;17297;54.022;10.760;2023-08-24T05:46:46;101766.34;;;22.23;61.36
30516;BME280;17297;54.022;10.760;2023-08-24T05:49:11;101775.19;;;22.13;61.60
30516;BME280;17297;54.022;10.760;2023-08-24T05:51:37;101770.69;;;22.07;61.97
30516;BME280;17297;54.022;10.760;2023-08-24T05:54:02;101774.41;;;22.01;62.05
30516;BME280;17297;54.022;10.760;2023-08-24T05:56:27;101771.31;;;21.97;61.84
30516;BME280;17297;54.022;10.760;2023-08-24T05:58:54;101775.84;;;21.91;61.94
30516;BME280;17297;54.022;10.760;2023-08-24T06:01:19;101777.16;;;21.89;62.38
30516;BME280;17297;54.022;10.760;2023-08-24T06:03:45;101776.84;;;21.85;62.18
30516;BME280;17297;54.022;10.760;2023-08-24T06:06:10;101778.16;;;21.83;62.54
30516;BME280;17297;54.022;10.760;2023-08-24T06:08:35;101779.47;;;21.80;62.59
30516;BME280;17297;54.022;10.760;2023-08-24T06:11:01;101780.53;;;21.79;62.70
30516;BME280;17297;54.022;10.760;2023-08-24T06:13:27;101783.06;;;21.81;62.93
30516;BME280;17297;54.022;10.760;2023-08-24T06:15:53;101770.28;;;21.86;63.10
30516;BME280;17297;54.022;10.760;2023-08-24T06:18:19;101774.19;;;21.90;62.86
30516;BME280;17297;54.022;10.760;2023-08-24T06:20:45;101769.28;;;21.92;62.74
30516;BME280;17297;54.022;10.760;2023-08-24T06:23:11;101768.72;;;21.90;62.85
30516;BME280;17297;54.022;10.760;2023-08-24T06:25:38;101770.38;;;21.91;63.16
30516;BME280;17297;54.022;10.760;2023-08-24T06:28:04;101756.94;;;21.90;63.29
30516;BME280;17297;54.022;10.760;2023-08-24T06:30:29;101755.25;;;21.89;63.36
30516;BME280;17297;54.022;10.760;2023-08-24T06:32:58;101762.41;;;21.90;63.30
30516;BME280;17297;54.022;10.760;2023-08-24T06:35:23;101755.03;;;21.90;63.54
30516;BME280;17297;54.022;10.760;2023-08-24T06:37:49;101752.03;;;21.92;63.32
30516;BME280;17297;54.022;10.760;2023-08-24T06:40:14;101747.09;;;22.06;63.70
30516;BME280;17297;54.022;10.760;2023-08-24T06:42:40;101758.91;;;22.52;64.15
30516;BME280;17297;54.022;10.760;2023-08-24T06:45:05;101752.75;;;23.12;64.18
30516;BME280;17297;54.022;10.760;2023-08-24T06:47:32;101750.34;;;23.38;62.99
30516;BME280;17297;54.022;10.760;2023-08-24T06:49:57;101739.56;;;23.53;62.51
30516;BME280;17297;54.022;10.760;2023-08-24T06:52:22;101735.84;;;23.64;62.43
30516;BME280;17297;54.022;10.760;2023-08-24T06:54:49;101731.75;;;23.67;61.77
30516;BME280;17297;54.022;10.760;2023-08-24T06:57:18;101733.03;;;23.59;62.07
30516;BME280;17297;54.022;10.760;2023-08-24T06:59:43;101738.75;;;23.52;61.93
30516;BME280;17297;54.022;10.760;2023-08-24T07:02:09;101737.25;;;23.45;61.76
30516;BME280;17297;54.022;10.760;2023-08-24T07:04:34;101726.66;;;23.54;61.77
30516;BME280;17297;54.022;10.760;2023-08-24T07:06:59;101729.41;;;23.54;61.59
30516;BME280;17297;54.022;10.760;2023-08-24T07:09:25;101722.78;;;23.49;61.59
30516;BME280;17297;54.022;10.760;2023-08-24T07:11:52;101724.53;;;23.39;61.14
30516;BME280;17297;54.022;10.760;2023-08-24T07:14:18;101727.66;;;23.25;61.58
30516;BME280;17297;54.022;10.760;2023-08-24T07:16:43;101730.28;;;23.15;61.72
30516;BME280;17297;54.022;10.760;2023-08-24T07:19:09;101726.63;;;23.10;62.09
30516;BME280;17297;54.022;10.760;2023-08-24T07:21:35;101735.50;;;23.17;62.04
30516;BME280;17297;54.022;10.760;2023-08-24T07:24:00;101729.72;;;23.35;62.15
30516;BME280;17297;54.022;10.760;2023-08-24T07:26:26;101731.31;;;23.53;61.75
30516;BME280;17297;54.022;10.760;2023-08-24T07:28:52;101734.31;;;23.51;61.28
30516;BME280;17297;54.022;10.760;2023-08-24T07:31:17;101722.91;;;23.38;61.40
30516;BME280;17297;54.022;10.760;2023-08-24T07:33:43;101729.00;;;23.23;61.38
30516;BME280;17297;54.022;10.760;2023-08-24T07:36:09;101730.47;;;23.09;61.66
30516;BME280;17297;54.022;10.760;2023-08-24T07:38:35;101719.59;;;22.97;61.71
30516;BME280;17297;54.022;10.760;2023-08-24T07:41:00;101729.03;;;22.89;61.80
30516;BME280;17297;54.022;10.760;2023-08-24T07:43:25;101727.06;;;22.85;62.15
30516;BME280;17297;54.022;10.760;2023-08-24T07:45:51;101734.28;;;22.74;62.06
30516;BME280;17297;54.022;10.760;2023-08-24T07:48:17;101726.75;;;22.64;62.13
30516;BME280;17297;54.022;10.760;2023-08-24T07:50:42;101724.44;;;22.56;62.53
30516;BME280;17297;54.022;10.760;2023-08-24T07:53:08;101711.72;;;22.50;62.51
30516;BME280;17297;54.022;10.760;2023-08-24T07:55:34;101712.72;;;22.44;62.84
30516;BME280;17297;54.022;10.760;2023-08-24T07:57:59;101716.44;;;22.38;62.89
30516;BME280;17297;54.022;10.760;2023-08-24T08:00:24;101726.00;;;22.35;63.36
30516;BME280;17297;54.022;10.760;2023-08-24T08:02:50;101723.16;;;22.30;63.27
30516;BME280;17297;54.022;10.760;2023-08-24T08:05:17;101721.19;;;22.25;63.08
30516;BME280;17297;54.022;10.760;2023-08-24T08:07:42;101715.09;;;22.23;63.12
30516;BME280;17297;54.022;10.760;2023-08-24T08:10:08;101714.16;;;22.18;63.38
30516;BME280;17297;54.022;10.760;2023-08-24T08:12:34;101710.84;;;22.16;63.65
30516;BME280;17297;54.022;10.760;2023-08-24T08:14:59;101727.03;;;22.17;63.89
30516;BME280;17297;54.022;10.760;2023-08-24T08:17:26;101715.03;;;22.18;63.86
30516;BME280;17297;54.022;10.760;2023-08-24T08:19:58;101719.44;;;22.19;63.90
30516;BME280;17297;54.022;10.760;2023-08-24T08:22:24;101715.38;;;22.22;63.53
30516;BME280;17297;54.022;10.760;2023-08-24T08:24:51;101716.78;;;22.24;63.77
30516;BME280;17297;54.022;10.760;2023-08-24T08:27:17;101710.22;;;22.25;63.24
30516;BME280;17297;54.022;10.760;2023-08-24T08:29:42;101694.00;;;22.24;63.30
30516;BME280;17297;54.022;10.760;2023-08-24T08:32:08;101689.28;;;22.19;63.30
30516;BME280;17297;54.022;10.760;2023-08-24T08:34:33;101689.50;;;22.18;63.32
30516;BME280;17297;54.022;10.760;2023-08-24T08:36:59;101686.19;;;22.16;63.35
30516;BME280;17297;54.022;10.760;2023-08-24T08:39:24;101696.09;;;22.17;63.49
30516;BME280;17297;54.022;10.760;2023-08-24T08:41:49;101691.66;;;22.16;63.36
30516;BME280;17297;54.022;10.760;2023-08-24T08:44:15;101689.97;;;22.14;63.54
30516;BME280;17297;54.022;10.760;2023-08-24T08:46:42;101694.63;;;22.14;63.17
30516;BME280;17297;54.022;10.760;2023-08-24T08:49:08;101693.22;;;22.11;63.45
30516;BME280;17297;54.022;10.760;2023-08-24T08:51:37;101697.88;;;22.11;63.36
30516;BME280;17297;54.022;10.760;2023-08-24T08:54:04;101689.06;;;22.09;63.26
30516;BME280;17297;54.022;10.760;2023-08-24T08:56:31;101691.56;;;22.10;63.28
30516;BME280;17297;54.022;10.760;2023-08-24T08:58:58;101689.66;;;22.11;63.44
30516;BME280;17297;54.022;10.760;2023-08-24T09:01:24;101695.13;;;22.11;63.16
30516;BME280;17297;54.022;10.760;2023-08-24T09:03:51;101692.38;;;22.11;63.09
30516;BME280;17297;54.022;10.760;2023-08-24T09:06:16;101695.94;;;22.11;62.93
30516;BME280;17297;54.022;10.760;2023-08-24T09:08:42;101694.41;;;22.16;62.86
30516;BME280;17297;54.022;10.760;2023-08-24T09:11:08;101696.91;;;22.17;63.03
30516;BME280;17297;54.022;10.760;2023-08-24T09:13:34;101692.03;;;22.19;62.67
30516;BME280;17297;54.022;10.760;2023-08-24T09:16:03;101685.22;;;22.22;63.03
30516;BME280;17297;54.022;10.760;2023-08-24T09:18:37;101689.38;;;22.24;62.97
30516;BME280;17297;54.022;10.760;2023-08-24T09:21:11;101681.50;;;22.28;62.75
30516;BME280;17297;54.022;10.760;2023-08-24T09:23:53;101678.25;;;22.31;62.75
30516;BME280;17297;54.022;10.760;2023-08-24T09:26:29;101676.06;;;22.33;62.93
30516;BME280;17297;54.022;10.760;2023-08-24T09:28:55;101675.00;;;22.34;62.11
30516;BME280;17297;54.022;10.760;2023-08-24T09:31:20;101680.00;;;22.37;62.48
30516;BME280;17297;54.022;10.760;2023-08-24T09:33:47;101677.00;;;22.39;62.18
30516;BME280;17297;54.022;10.760;2023-08-24T09:36:14;101673.75;;;22.42;61.88
30516;BME280;17297;54.022;10.760;2023-08-24T09:38:46;101691.03;;;22.42;61.87
30516;BME280;17297;54.022;10.760;2023-08-24T09:41:13;101689.97;;;22.43;61.67
30516;BME280;17297;54.022;10.760;2023-08-24T09:43:39;101687.22;;;22.43;61.89
30516;BME280;17297;54.022;10.760;2023-08-24T09:46:05;101682.06;;;22.47;61.67
30516;BME280;17297;54.022;10.760;2023-08-24T09:48:32;101684.53;;;22.48;61.75
30516;BME280;17297;54.022;10.760;2023-08-24T09:51:01;101676.66;;;22.52;61.36
30516;BME280;17297;54.022;10.760;2023-08-24T09:53:32;101682.47;;;22.55;61.14
30516;BME280;17297;54.022;10.760;2023-08-24T09:55:59;101683.03;;;22.57;61.04
30516;BME280;17297;54.022;10.760;2023-08-24T09:58:25;101679.81;;;22.60;60.82
30516;BME280;17297;54.022;10.760;2023-08-24T10:00:52;101681.44;;;22.62;61.01
30516;BME280;17297;54.022;10.760;2023-08-24T10:03:19;101678.72;;;22.62;60.95
30516;BME280;17297;54.022;10.760;2023-08-24T10:05:51;101682.88;;;22.64;60.64
30516;BME280;17297;54.022;10.760;2023-08-24T10:08:21;101672.47;;;22.66;60.67
30516;BME280;17297;54.022;10.760;2023-08-24T10:10:52;101669.75;;;22.66;60.50
30516;BME280;17297;54.022;10.760;2023-08-24T10:16:04;101675.31;;;22.71;60.75
30516;BME280;17297;54.022;10.760;2023-08-24T10:18:30;101681.94;;;22.75;60.78
30516;BME280;17297;54.022;10.760;2023-08-24T10:20:57;101676.78;;;22.79;60.74
30516;BME280;17297;54.022;10.760;2023-08-24T10:23:23;101672.72;;;22.81;60.68
30516;BME280;17297;54.022;10.760;2023-08-24T10:25:51;101674.94;;;22.85;60.75
30516;BME280;17297;54.022;10.760;2023-08-24T10:28:18;101674.69;;;22.86;60.02
30516;BME280;17297;54.022;10.760;2023-08-24T10:30:45;101662.66;;;22.87;60.37
30516;BME280;17297;54.022;10.760;2023-08-24T10:33:12;101656.06;;;22.88;60.97
30516;BME280;17297;54.022;10.760;2023-08-24T10:35:40;101661.06;;;22.91;60.88
30516;BME280;17297;54.022;10.760;2023-08-24T10:38:06;101655.09;;;22.94;60.75
30516;BME280;17297;54.022;10.760;2023-08-24T10:40:36;101640.28;;;22.95;60.42
30516;BME280;17297;54.022;10.760;2023-08-24T10:43:03;101634.78;;;22.95;60.04
30516;BME280;17297;54.022;10.760;2023-08-24T10:46:01;101631.81;;;22.97;60.10
30516;BME280;17297;54.022;10.760;2023-08-24T10:51:16;101631.84;;;23.02;59.73
30516;BME280;17297;54.022;10.760;2023-08-24T10:56:13;101622.28;;;23.04;59.03
30516;BME280;17297;54.022;10.760;2023-08-24T10:58:39;101612.47;;;23.09;58.88
30516;BME280;17297;54.022;10.760;2023-08-24T11:01:04;101601.22;;;23.10;59.23
30516;BME280;17297;54.022;10.760;2023-08-24T11:03:33;101592.75;;;23.12;59.06
30516;BME280;17297;54.022;10.760;2023-08-24T11:05:59;101606.22;;;23.13;58.91
30516;BME280;17297;54.022;10.760;2023-08-24T11:08:47;101604.28;;;23.14;58.88
30516;BME280;17297;54.022;10.760;2023-08-24T11:11:20;101613.94;;;23.16;58.42
30516;BME280;17297;54.022;10.760;2023-08-24T11:14:14;101609.28;;;23.17;58.33
30516;BME280;17297;54.022;10.760;2023-08-24T11:16:46;101606.00;;;23.20;58.48
30516;BME280;17297;54.022;10.760;2023-08-24T11:19:13;101606.00;;;23.20;58.09
30516;BME280;17297;54.022;10.760;2023-08-24T11:21:39;101600.28;;;23.21;57.94
30516;BME280;17297;54.022;10.760;2023-08-24T11:24:06;101595.94;;;23.25;57.88
30516;BME280;17297;54.022;10.760;2023-08-24T11:26:31;101588.00;;;23.29;57.55
30516;BME280;17297;54.022;10.760;2023-08-24T11:28:57;101586.91;;;23.30;57.63
30516;BME280;17297;54.022;10.760;2023-08-24T11:31:23;101586.66;;;23.32;57.16
30516;BME280;17297;54.022;10.760;2023-08-24T11:33:54;101577.59;;;23.31;56.79
30516;BME280;17297;54.022;10.760;2023-08-24T11:36:20;101584.50;;;23.34;56.49
30516;BME280;17297;54.022;10.760;2023-08-24T11:38:46;101575.16;;;23.35;56.59
30516;BME280;17297;54.022;10.760;2023-08-24T11:43:38;101557.38;;;23.42;56.65
30516;BME280;17297;54.022;10.760;2023-08-24T11:46:03;101556.34;;;23.48;56.62
30516;BME280;17297;54.022;10.760;2023-08-24T11:48:29;101541.28;;;23.51;56.19
30516;BME280;17297;54.022;10.760;2023-08-24T11:50:57;101525.97;;;23.55;56.79
30516;BME280;17297;54.022;10.760;2023-08-24T11:53:22;101524.34;;;23.59;56.37
30516;BME280;17297;54.022;10.760;2023-08-24T11:55:52;101526.28;;;23.64;56.65
30516;BME280;17297;54.022;10.760;2023-08-24T11:58:17;101523.84;;;23.67;55.95
30516;BME280;17297;54.022;10.760;2023-08-24T12:00:43;101518.94;;;23.69;55.50
30516;BME280;17297;54.022;10.760;2023-08-24T12:03:10;101508.53;;;23.71;55.09
30516;BME280;17297;54.022;10.760;2023-08-24T12:05:35;101525.31;;;23.75;55.37
30516;BME280;17297;54.022;10.760;2023-08-24T12:08:01;101514.91;;;23.77;55.29
30516;BME280;17297;54.022;10.760;2023-08-24T12:10:26;101518.78;;;23.81;54.86
30516;BME280;17297;54.022;10.760;2023-08-24T12:13:02;101514.69;;;23.84;54.84
30516;BME280;17297;54.022;10.760;2023-08-24T12:15:28;101506.75;;;23.87;54.53
30516;BME280;17297;54.022;10.760;2023-08-24T12:17:53;101500.16;;;23.88;54.58
30516;BME280;17297;54.022;10.760;2023-08-24T12:20:20;101490.53;;;23.91;54.49
30516;BME280;17297;54.022;10.760;2023-08-24T12:22:56;101482.56;;;23.89;54.46
30516;BME280;17297;54.022;10.760;2023-08-24T12:25:22;101471.03;;;23.92;54.34
30516;BME280;17297;54.022;10.760;2023-08-24T12:27:52;101466.66;;;23.91;54.37
30516;BME280;17297;54.022;10.760;2023-08-24T12:30:19;101460.03;;;23.92;54.47
30516;BME280;17297;54.022;10.760;2023-08-24T12:32:46;101457.06;;;23.94;54.22
30516;BME280;17297;54.022;10.760;2023-08-24T12:35:14;101462.53;;;23.94;54.45
30516;BME280;17297;54.022;10.760;2023-08-24T12:37:40;101452.94;;;23.96;54.61
30516;BME280;17297;54.022;10.760;2023-08-24T12:40:06;101480.16;;;23.98;54.58
30516;BME280;17297;54.022;10.760;2023-08-24T12:42:32;101469.97;;;23.98;54.81
30516;BME280;17297;54.022;10.760;2023-08-24T12:44:58;101476.88;;;24.01;54.89
30516;BME280;17297;54.022;10.760;2023-08-24T12:47:23;101471.13;;;24.03;55.07
30516;BME280;17297;54.022;10.760;2023-08-24T12:49:49;101465.06;;;24.01;55.48
30516;BME280;17297;54.022;10.760;2023-08-24T12:52:20;101464.47;;;23.98;55.30
30516;BME280;17297;54.022;10.760;2023-08-24T12:54:45;101464.19;;;23.95;56.37